createdAt,value
2023-01-29T00:02:18.512Z,-2.13
2023-01-29T00:05:28.450Z,-2.10
2023-01-29T00:08:30.127Z,-2.09
2023-01-29T00:11:31.559Z,-2.09
2023-01-29T00:14:32.897Z,-2.14
2023-01-29T00:17:34.762Z,-2.16
2023-01-29T00:20:36.089Z,-2.14
2023-01-29T00:23:37.779Z,-2.09
2023-01-29T00:26:39.502Z,-2.05
2023-01-29T00:29:41.202Z,-2.03
2023-01-29T00:32:42.694Z,-2.07
2023-01-29T00:35:44.624Z,-2.09
2023-01-29T00:38:53.900Z,-2.12
2023-01-29T00:42:13.709Z,-2.17
2023-01-29T00:45:17.999Z,-2.24
2023-01-29T00:48:20.482Z,-2.27
2023-01-29T00:51:21.876Z,-2.33
2023-01-29T00:54:23.271Z,-2.37
2023-01-29T00:57:26.968Z,-2.41
2023-01-29T01:00:28.750Z,-2.45
2023-01-29T01:03:34.782Z,-2.50
2023-01-29T01:06:38.121Z,-2.56
2023-01-29T01:09:58.321Z,-2.60
2023-01-29T01:13:02.342Z,-2.62
2023-01-29T01:16:12.962Z,-2.64
2023-01-29T01:19:15.706Z,-2.69
2023-01-29T01:22:17.393Z,-2.73
2023-01-29T01:25:19.394Z,-2.77
2023-01-29T01:28:20.827Z,-2.83
2023-01-29T01:31:22.421Z,-2.89
2023-01-29T01:34:26.281Z,-2.90
2023-01-29T01:37:27.692Z,-2.93
2023-01-29T01:40:29.701Z,-2.98
2023-01-29T01:43:49.147Z,-3.05
2023-01-29T01:46:51.395Z,-3.05
2023-01-29T01:49:55.454Z,-3.05
2023-01-29T01:53:02.290Z,-3.06
2023-01-29T01:56:13.927Z,-3.04
2023-01-29T01:59:18.960Z,-3.00
2023-01-29T02:02:39.537Z,-2.98
2023-01-29T02:06:00.417Z,-3.01
2023-01-29T02:09:26.296Z,-3.15
2023-01-29T02:12:30.606Z,-3.23
2023-01-29T02:15:33.891Z,-3.26
2023-01-29T02:18:37.440Z,-3.26
2023-01-29T02:21:43.657Z,-3.27
2023-01-29T02:24:48.147Z,-3.27
2023-01-29T02:28:14.598Z,-3.30
2023-01-29T02:31:24.829Z,-3.30
2023-01-29T02:34:51.235Z,-3.25
2023-01-29T02:38:08.247Z,-3.15
2023-01-29T02:41:09.652Z,-3.03
2023-01-29T02:44:27.268Z,-2.93
2023-01-29T02:47:34.349Z,-2.86
2023-01-29T02:50:35.666Z,-2.81
2023-01-29T02:54:12.190Z,-2.79
2023-01-29T02:57:22.327Z,-2.76
2023-01-29T03:00:29.461Z,-2.73
2023-01-29T03:03:39.032Z,-2.66
2023-01-29T03:06:51.375Z,-2.56
2023-01-29T03:09:54.330Z,-2.50
2023-01-29T03:13:19.647Z,-2.48
2023-01-29T03:16:42.026Z,-2.46
2023-01-29T03:19:46.568Z,-2.47
2023-01-29T03:23:05.213Z,-2.49
2023-01-29T03:26:25.453Z,-2.49
2023-01-29T03:29:49.869Z,-2.43
2023-01-29T03:32:55.319Z,-2.34
2023-01-29T03:36:08.455Z,-2.30
2023-01-29T03:39:11.350Z,-2.28
2023-01-29T03:42:21.342Z,-2.27
2023-01-29T03:45:31.341Z,-2.28
2023-01-29T03:49:18.254Z,-2.29
2023-01-29T03:52:38.649Z,-2.29
2023-01-29T03:55:58.988Z,-2.25
2023-01-29T03:59:11.363Z,-2.16
2023-01-29T04:02:42.059Z,-2.11
2023-01-29T04:06:04.747Z,-2.07
2023-01-29T04:09:16.199Z,-2.10
2023-01-29T04:12:27.499Z,-2.13
2023-01-29T04:15:35.804Z,-2.13
2023-01-29T04:18:37.752Z,-2.16
2023-01-29T04:21:48.321Z,-2.16
2023-01-29T04:24:50.699Z,-2.11
2023-01-29T04:28:08.063Z,-2.06
2023-01-29T04:31:12.039Z,-2.03
2023-01-29T04:34:28.632Z,-1.99
2023-01-29T04:37:30.375Z,-1.97
2023-01-29T04:40:44.408Z,-2.00
2023-01-29T04:44:18.214Z,-2.04
2023-01-29T04:47:53.411Z,-2.02
2023-01-29T04:51:20.411Z,-1.96
2023-01-29T04:54:30.915Z,-1.99
2023-01-29T04:57:50.173Z,-2.01
2023-01-29T05:00:53.615Z,-1.98
2023-01-29T05:03:56.752Z,-1.99
2023-01-29T05:07:04.026Z,-2.00
2023-01-29T05:10:07.583Z,-1.96
2023-01-29T05:13:12.880Z,-1.91
2023-01-29T05:16:27.246Z,-1.85
2023-01-29T05:19:28.631Z,-1.79
2023-01-29T05:22:30.335Z,-1.79
2023-01-29T05:25:32.761Z,-1.84
2023-01-29T05:28:34.138Z,-1.84
2023-01-29T05:31:35.550Z,-1.81
2023-01-29T05:34:36.950Z,-1.80
2023-01-29T05:37:38.377Z,-1.81
2023-01-29T05:40:40.211Z,-1.81
2023-01-29T05:43:41.539Z,-1.78
2023-01-29T05:46:43.304Z,-1.78
2023-01-29T05:49:44.753Z,-1.83
2023-01-29T05:52:46.099Z,-1.88
2023-01-29T05:55:47.932Z,-1.87
2023-01-29T05:58:49.337Z,-1.85
2023-01-29T06:01:50.729Z,-1.82
2023-01-29T06:04:52.150Z,-1.80
2023-01-29T06:07:53.520Z,-1.77
2023-01-29T06:10:54.945Z,-1.72
2023-01-29T06:13:56.359Z,-1.67
2023-01-29T06:16:57.806Z,-1.68
2023-01-29T06:19:59.163Z,-1.79
2023-01-29T06:23:00.573Z,-1.88
2023-01-29T06:26:11.655Z,-1.91
2023-01-29T06:29:13.221Z,-1.96
2023-01-29T06:32:14.554Z,-1.97
2023-01-29T06:35:16.013Z,-1.99
2023-01-29T06:38:17.397Z,-1.97
2023-01-29T06:41:22.081Z,-1.95
2023-01-29T06:44:23.495Z,-1.95
2023-01-29T06:47:26.670Z,-1.94
2023-01-29T06:50:27.998Z,-1.90
2023-01-29T06:53:29.844Z,-1.86
2023-01-29T06:56:31.254Z,-1.80
2023-01-29T06:59:32.722Z,-1.78
2023-01-29T07:02:34.149Z,-1.74
2023-01-29T07:05:35.656Z,-1.69
2023-01-29T07:08:38.735Z,-1.63
2023-01-29T07:11:40.099Z,-1.59
2023-01-29T07:14:41.427Z,-1.57
2023-01-29T07:17:42.793Z,-1.52
2023-01-29T07:20:44.162Z,-1.49
2023-01-29T07:23:45.520Z,-1.52
2023-01-29T07:26:46.869Z,-1.55
2023-01-29T07:29:48.309Z,-1.52
2023-01-29T07:32:49.669Z,-1.49
2023-01-29T07:35:52.017Z,-1.43
2023-01-29T07:38:53.388Z,-1.35
2023-01-29T07:41:54.826Z,-1.32
2023-01-29T07:44:57.708Z,-1.28
2023-01-29T07:47:59.103Z,-1.26
2023-01-29T07:51:00.607Z,-1.26
2023-01-29T07:54:02.065Z,-1.29
2023-01-29T07:57:03.444Z,-1.29
2023-01-29T08:00:05.188Z,-1.27
2023-01-29T08:03:16.450Z,-1.28
2023-01-29T08:06:18.691Z,-1.28
2023-01-29T08:09:20.056Z,-1.26
2023-01-29T08:12:21.489Z,-1.20
2023-01-29T08:15:23.526Z,-1.15
2023-01-29T08:18:24.985Z,-1.13
2023-01-29T08:21:26.355Z,-1.11
2023-01-29T08:24:36.089Z,-1.09
2023-01-29T08:27:49.236Z,-1.07
2023-01-29T08:30:50.787Z,-1.08
2023-01-29T08:33:56.580Z,-1.06
2023-01-29T08:36:58.195Z,-1.03
2023-01-29T08:39:59.578Z,-1.02
2023-01-29T08:43:04.151Z,-1.00
2023-01-29T08:46:07.911Z,-0.97
2023-01-29T08:49:09.413Z,-0.95
2023-01-29T08:52:10.792Z,-0.96
2023-01-29T08:55:13.089Z,-1.00
2023-01-29T08:58:14.487Z,-1.02
2023-01-29T09:01:16.079Z,-1.02
2023-01-29T09:04:17.525Z,-0.99
2023-01-29T09:07:21.146Z,-0.95
2023-01-29T09:10:22.621Z,-0.88
2023-01-29T09:13:23.965Z,-0.81
2023-01-29T09:16:25.458Z,-0.76
2023-01-29T09:19:26.935Z,-0.70
2023-01-29T09:22:28.348Z,-0.66
2023-01-29T09:25:29.731Z,-0.63
2023-01-29T09:28:31.108Z,-0.63
2023-01-29T09:31:33.001Z,-0.63
2023-01-29T09:34:34.772Z,-0.60
2023-01-29T09:37:36.269Z,-0.60
2023-01-29T09:40:47.768Z,-0.57
2023-01-29T09:43:54.768Z,-0.53
2023-01-29T09:46:59.487Z,-0.50
2023-01-29T09:50:06.382Z,-0.49
2023-01-29T09:53:18.571Z,-0.48
2023-01-29T09:56:22.995Z,-0.47
2023-01-29T09:59:27.283Z,-0.46
2023-01-29T10:02:47.611Z,-0.47
2023-01-29T10:06:08.638Z,-0.49
2023-01-29T10:09:35.090Z,-0.52
2023-01-29T10:13:02.221Z,-0.49
2023-01-29T10:16:22.277Z,-0.45
2023-01-29T10:19:51.873Z,-0.39
2023-01-29T10:23:20.990Z,-0.32
2023-01-29T10:26:25.757Z,-0.27
2023-01-29T10:29:30.251Z,-0.23
2023-01-29T10:32:31.907Z,-0.25
2023-01-29T10:35:38.745Z,-0.25
2023-01-29T10:38:44.958Z,-0.23
2023-01-29T10:42:02.952Z,-0.24
2023-01-29T10:45:09.875Z,-0.25
2023-01-29T10:48:17.521Z,-0.23
2023-01-29T10:51:35.999Z,-0.19
2023-01-29T10:54:56.074Z,-0.17
2023-01-29T10:58:07.681Z,-0.15
2023-01-29T11:01:10.313Z,-0.12
2023-01-29T11:04:13.755Z,-0.11
2023-01-29T11:07:17.760Z,-0.10
2023-01-29T11:10:22.771Z,-0.08
2023-01-29T11:13:30.588Z,-0.08
2023-01-29T11:16:43.728Z,-0.09
2023-01-29T11:19:47.890Z,-0.12
2023-01-29T11:22:54.997Z,-0.15
2023-01-29T11:25:58.521Z,-0.15
2023-01-29T11:28:59.991Z,-0.14
2023-01-29T11:32:05.802Z,-0.10
2023-01-29T11:35:13.283Z,-0.02
2023-01-29T11:38:28.227Z,0.05
2023-01-29T11:41:29.982Z,0.07
2023-01-29T11:44:35.793Z,0.10
2023-01-29T11:47:38.176Z,0.13
2023-01-29T11:50:40.304Z,0.14
2023-01-29T11:53:49.003Z,0.16
2023-01-29T11:56:51.127Z,0.19
2023-01-29T11:59:54.829Z,0.23
2023-01-29T12:02:58.974Z,0.25
2023-01-29T12:06:08.370Z,0.27
2023-01-29T12:09:16.980Z,0.25
2023-01-29T12:12:21.654Z,0.25
2023-01-29T12:15:26.185Z,0.31
2023-01-29T12:18:27.510Z,0.35
2023-01-29T12:21:50.379Z,0.39
2023-01-29T12:25:00.804Z,0.41
2023-01-29T12:28:24.193Z,0.43
2023-01-29T12:31:31.414Z,0.41
2023-01-29T12:34:48.432Z,0.40
2023-01-29T12:38:05.244Z,0.49
2023-01-29T12:41:27.901Z,0.51
2023-01-29T12:44:56.756Z,0.49
2023-01-29T12:48:07.184Z,0.52
2023-01-29T12:51:17.081Z,0.65
2023-01-29T12:54:27.063Z,0.82
2023-01-29T12:57:34.292Z,0.96
2023-01-29T13:00:40.009Z,0.99
2023-01-29T13:04:02.977Z,0.99
2023-01-29T13:07:32.582Z,0.99
2023-01-29T13:10:42.489Z,0.97
2023-01-29T13:13:54.344Z,0.95
2023-01-29T13:17:07.682Z,0.89
2023-01-29T13:20:23.970Z,0.87
2023-01-29T13:23:33.619Z,0.84
2023-01-29T13:26:35.843Z,0.80
2023-01-29T13:29:37.391Z,0.70
2023-01-29T13:32:38.971Z,0.64
2023-01-29T13:35:42.897Z,0.59
2023-01-29T13:38:44.503Z,0.51
2023-01-29T13:41:46.181Z,0.46
2023-01-29T13:44:54.754Z,0.39
2023-01-29T13:48:27.035Z,0.33
2023-01-29T13:51:35.870Z,0.28
2023-01-29T13:54:37.318Z,0.24
2023-01-29T13:57:38.745Z,0.23
2023-01-29T14:00:40.171Z,0.21
2023-01-29T14:04:03.326Z,0.19
2023-01-29T14:07:38.742Z,0.11
2023-01-29T14:10:41.985Z,0.06
2023-01-29T14:13:48.433Z,0.02
2023-01-29T14:16:50.067Z,-0.02
2023-01-29T14:19:57.340Z,-0.03
2023-01-29T14:23:00.460Z,-0.05
2023-01-29T14:26:05.202Z,-0.10
2023-01-29T14:29:16.566Z,-0.14
2023-01-29T14:32:24.356Z,-0.12
2023-01-29T14:35:29.944Z,-0.12
2023-01-29T14:38:32.566Z,-0.14
2023-01-29T14:41:35.589Z,-0.17
2023-01-29T14:44:47.882Z,-0.18
2023-01-29T14:47:49.770Z,-0.23
2023-01-29T14:50:55.282Z,-0.29
2023-01-29T14:54:27.474Z,-0.35
2023-01-29T14:57:30.480Z,-0.45
2023-01-29T15:00:43.003Z,-0.52
2023-01-29T15:03:49.173Z,-0.61
2023-01-29T15:07:03.999Z,-0.68
2023-01-29T15:10:22.822Z,-0.75
2023-01-29T15:13:37.454Z,-0.81
2023-01-29T15:17:16.417Z,-0.87
2023-01-29T15:20:33.103Z,-0.93
2023-01-29T15:23:34.535Z,-0.94
2023-01-29T15:26:36.311Z,-0.96
2023-01-29T15:29:38.985Z,-0.98
2023-01-29T15:32:40.528Z,-1.01
2023-01-29T15:35:42.709Z,-1.05
2023-01-29T15:38:44.196Z,-1.11
2023-01-29T15:41:45.896Z,-1.17
2023-01-29T15:44:47.601Z,-1.23
2023-01-29T15:47:50.003Z,-1.30
2023-01-29T15:50:54.533Z,-1.34
2023-01-29T15:53:57.791Z,-1.35
2023-01-29T15:57:00.842Z,-1.34
2023-01-29T16:00:04.371Z,-1.34
2023-01-29T16:03:14.928Z,-1.40
2023-01-29T16:06:16.691Z,-1.44
2023-01-29T16:09:22.969Z,-1.51
2023-01-29T16:12:24.791Z,-1.64
2023-01-29T16:15:37.849Z,-1.73
2023-01-29T16:18:54.224Z,-1.79
2023-01-29T16:22:03.385Z,-1.87
2023-01-29T16:25:10.627Z,-1.94
2023-01-29T16:28:12.276Z,-2.00
2023-01-29T16:31:21.902Z,-2.04
2023-01-29T16:34:32.222Z,-2.06
2023-01-29T16:37:35.706Z,-2.10
2023-01-29T16:40:38.183Z,-2.16
2023-01-29T16:43:47.518Z,-2.21
2023-01-29T16:46:52.196Z,-2.26
2023-01-29T16:50:14.786Z,-2.34
2023-01-29T16:53:22.616Z,-2.39
2023-01-29T16:56:27.314Z,-2.40
2023-01-29T16:59:32.562Z,-2.44
2023-01-29T17:02:38.682Z,-2.48
2023-01-29T17:05:40.696Z,-2.50
2023-01-29T17:08:42.726Z,-2.47
2023-01-29T17:11:44.183Z,-2.47
2023-01-29T17:14:58.254Z,-2.49
2023-01-29T17:18:00.165Z,-2.52
2023-01-29T17:21:01.554Z,-2.54
2023-01-29T17:24:03.148Z,-2.57
2023-01-29T17:27:04.561Z,-2.60
2023-01-29T17:30:07.227Z,-2.60
2023-01-29T17:33:14.093Z,-2.65
2023-01-29T17:36:17.058Z,-2.72
2023-01-29T17:39:23.503Z,-2.74
2023-01-29T17:42:25.602Z,-2.75
2023-01-29T17:45:27.008Z,-2.81
2023-01-29T17:48:29.600Z,-2.82
2023-01-29T17:51:31.007Z,-2.83
2023-01-29T17:54:32.623Z,-2.86
2023-01-29T17:57:33.990Z,-2.86
2023-01-29T18:00:35.402Z,-2.88
2023-01-29T18:03:37.013Z,-2.88
2023-01-29T18:06:40.516Z,-2.89
2023-01-29T18:09:43.536Z,-2.91
2023-01-29T18:12:45.189Z,-2.94
2023-01-29T18:15:46.649Z,-2.98
2023-01-29T18:18:49.530Z,-3.01
2023-01-29T18:21:51.778Z,-3.03
2023-01-29T18:24:53.267Z,-3.07
2023-01-29T18:27:54.676Z,-3.07
2023-01-29T18:30:56.412Z,-3.09
2023-01-29T18:33:57.971Z,-3.14
2023-01-29T18:36:59.612Z,-3.20
2023-01-29T18:40:01.140Z,-3.24
2023-01-29T18:43:03.607Z,-3.24
2023-01-29T18:46:06.158Z,-3.23
2023-01-29T18:49:08.072Z,-3.25
2023-01-29T18:52:09.516Z,-3.22
2023-01-29T18:55:11.023Z,-3.21
2023-01-29T18:58:26.558Z,-3.23
2023-01-29T19:01:33.848Z,-3.28
2023-01-29T19:04:35.472Z,-3.35
2023-01-29T19:07:37.090Z,-3.43
2023-01-29T19:10:40.048Z,-3.54
2023-01-29T19:13:45.026Z,-3.58
2023-01-29T19:16:46.644Z,-3.56
2023-01-29T19:19:48.854Z,-3.60
2023-01-29T19:22:50.405Z,-3.65
2023-01-29T19:25:51.916Z,-3.63
2023-01-29T19:28:53.425Z,-3.63
2023-01-29T19:31:54.895Z,-3.65
2023-01-29T19:34:57.199Z,-3.69
2023-01-29T19:37:59.341Z,-3.71
2023-01-29T19:41:00.886Z,-3.68
2023-01-29T19:44:02.457Z,-3.64
2023-01-29T19:47:04.244Z,-3.65
2023-01-29T19:50:07.224Z,-3.70
2023-01-29T19:53:09.263Z,-3.71
2023-01-29T19:56:14.769Z,-3.69
2023-01-29T19:59:16.157Z,-3.68
2023-01-29T20:02:17.668Z,-3.68
2023-01-29T20:05:19.864Z,-3.70
2023-01-29T20:08:23.141Z,-3.71
2023-01-29T20:11:24.663Z,-3.73
2023-01-29T20:14:26.142Z,-3.79
2023-01-29T20:17:27.499Z,-3.84
2023-01-29T20:20:32.684Z,-4.00
2023-01-29T20:23:38.011Z,-4.13
2023-01-29T20:26:40.173Z,-4.21
2023-01-29T20:29:42.991Z,-4.27
2023-01-29T20:32:44.404Z,-4.32
2023-01-29T20:35:52.954Z,-4.33
2023-01-29T20:38:54.501Z,-4.30
2023-01-29T20:41:56.624Z,-4.31
2023-01-29T20:44:58.080Z,-4.29
2023-01-29T20:47:59.546Z,-4.26
2023-01-29T20:51:07.405Z,-4.22
2023-01-29T20:54:09.335Z,-4.18
2023-01-29T20:57:10.818Z,-4.14
2023-01-29T21:00:14.158Z,-4.13
2023-01-29T21:03:15.546Z,-4.08
2023-01-29T21:06:16.913Z,-4.05
2023-01-29T21:09:19.283Z,-4.06
2023-01-29T21:12:20.667Z,-4.09
2023-01-29T21:15:22.823Z,-4.09
2023-01-29T21:18:27.681Z,-4.13
2023-01-29T21:21:29.103Z,-4.14
2023-01-29T21:24:30.505Z,-4.15
2023-01-29T21:27:31.943Z,-4.15
2023-01-29T21:30:33.750Z,-4.19
2023-01-29T21:33:35.820Z,-4.28
2023-01-29T21:36:37.330Z,-4.30
2023-01-29T21:39:39.031Z,-4.33
2023-01-29T21:43:00.199Z,-4.34
2023-01-29T21:46:04.320Z,-4.30
2023-01-29T21:49:05.846Z,-4.27
2023-01-29T21:52:10.417Z,-4.28
2023-01-29T21:55:11.779Z,-4.35
2023-01-29T21:58:14.550Z,-4.37
2023-01-29T22:01:36.358Z,-4.46
2023-01-29T22:04:37.763Z,-4.47
2023-01-29T22:07:39.131Z,-4.50
2023-01-29T22:10:40.990Z,-4.55
2023-01-29T22:13:42.523Z,-4.63
2023-01-29T22:16:44.959Z,-4.66
2023-01-29T22:19:46.802Z,-4.67
2023-01-29T22:22:48.279Z,-4.69
2023-01-29T22:25:49.640Z,-4.72
2023-01-29T22:28:51.036Z,-4.78
2023-01-29T22:31:52.443Z,-4.82
2023-01-29T22:34:54.016Z,-4.81
2023-01-29T22:37:55.358Z,-4.79
2023-01-29T22:40:59.695Z,-4.79
2023-01-29T22:44:01.078Z,-4.87
2023-01-29T22:47:02.559Z,-4.93
2023-01-29T22:50:05.597Z,-4.98
2023-01-29T22:53:13.801Z,-5.03
2023-01-29T22:56:15.941Z,-5.09
2023-01-29T22:59:17.364Z,-5.07
2023-01-29T23:02:18.734Z,-5.00
2023-01-29T23:05:20.398Z,-4.93
2023-01-29T23:08:21.821Z,-4.92
2023-01-29T23:11:23.295Z,-4.90
2023-01-29T23:14:24.776Z,-4.91
2023-01-29T23:17:26.202Z,-4.98
2023-01-29T23:20:27.645Z,-5.09
2023-01-29T23:23:29.678Z,-5.13
2023-01-29T23:26:49.933Z,-5.13
2023-01-29T23:29:51.356Z,-5.13
2023-01-29T23:32:52.707Z,-5.14
2023-01-29T23:35:54.109Z,-5.16
2023-01-29T23:38:55.474Z,-5.17
2023-01-29T23:41:56.842Z,-5.20
2023-01-29T23:44:58.153Z,-5.25
2023-01-29T23:47:59.541Z,-5.21
2023-01-29T23:51:01.212Z,-5.16
2023-01-29T23:54:03.373Z,-5.11
2023-01-29T23:57:04.780Z,-5.14
